sensor_id;sensor_type;location;lat;lon;timestamp;pressure;altitude;pressure_sealevel;temperature;humidity
78206;BME280;67480;48.920;12.880;2023-12-20T00:01:17;96945.69;;;0.33;73.37
78206;BME280;67480;48.920;12.880;2023-12-20T00:03:42;96935.97;;;0.35;73.66
78206;BME280;67480;48.920;12.880;2023-12-20T00:06:08;96939.06;;;0.30;73.71
78206;BME280;67480;48.920;12.880;2023-12-20T00:08:34;96937.47;;;0.29;73.59
78206;BME280;67480;48.920;12.880;2023-12-20T00:10:59;96929.22;;;0.26;74.10
78206;BME280;67480;48.920;12.880;2023-12-20T00:13:25;96933.59;;;0.25;73.88
78206;BME280;67480;48.920;12.880;2023-12-20T00:15:50;96930.84;;;0.27;74.01
78206;BME280;67480;48.920;12.880;2023-12-20T00:18:15;96928.13;;;0.20;74.37
78206;BME280;67480;48.920;12.880;2023-12-20T00:20:40;96928.66;;;0.15;74.52
78206;BME280;67480;48.920;12.880;2023-12-20T00:23:06;96943.38;;;0.15;75.11
78206;BME280;67480;48.920;12.880;2023-12-20T00:25:33;96951.97;;;0.15;74.75
78206;BME280;67480;48.920;12.880;2023-12-20T00:27:58;96938.22;;;0.15;74.52
78206;BME280;67480;48.920;12.880;2023-12-20T00:30:24;96945.34;;;0.13;74.65
78206;BME280;67480;48.920;12.880;2023-12-20T00:32:49;96941.16;;;0.12;74.63
78206;BME280;67480;48.920;12.880;2023-12-20T00:35:16;96946.13;;;0.13;74.71
78206;BME280;67480;48.920;12.880;2023-12-20T00:37:42;96937.88;;;0.18;74.79
78206;BME280;67480;48.920;12.880;2023-12-20T00:40:08;96938.66;;;0.18;74.59
78206;BME280;67480;48.920;12.880;2023-12-20T00:42:34;96939.47;;;0.19;74.53
78206;BME280;67480;48.920;12.880;2023-12-20T00:45:00;96929.09;;;0.19;74.79
78206;BME280;67480;48.920;12.880;2023-12-20T00:47:25;96933.13;;;0.22;74.74
78206;BME280;67480;48.920;12.880;2023-12-20T00:49:51;96941.38;;;0.25;74.77
78206;BME280;67480;48.920;12.880;2023-12-20T00:52:16;96941.19;;;0.27;74.41
78206;BME280;67480;48.920;12.880;2023-12-20T00:54:45;96944.59;;;0.27;74.40
78206;BME280;67480;48.920;12.880;2023-12-20T00:57:10;96930.31;;;0.31;74.15
78206;BME280;67480;48.920;12.880;2023-12-20T00:59:36;96914.75;;;0.31;74.17
78206;BME280;67480;48.920;12.880;2023-12-20T01:02:02;96920.28;;;0.28;74.13
78206;BME280;67480;48.920;12.880;2023-12-20T01:04:27;96929.69;;;0.29;74.54
78206;BME280;67480;48.920;12.880;2023-12-20T01:06:54;96931.28;;;0.30;74.60
78206;BME280;67480;48.920;12.880;2023-12-20T01:09:20;96933.25;;;0.28;74.43
78206;BME280;67480;48.920;12.880;2023-12-20T01:11:48;96928.53;;;0.32;74.58
78206;BME280;67480;48.920;12.880;2023-12-20T01:14:14;96932.53;;;0.34;74.52
78206;BME280;67480;48.920;12.880;2023-12-20T01:16:39;96914.41;;;0.34;74.37
78206;BME280;67480;48.920;12.880;2023-12-20T01:19:04;96906.84;;;0.33;74.16
78206;BME280;67480;48.920;12.880;2023-12-20T01:21:30;96893.44;;;0.29;74.25
78206;BME280;67480;48.920;12.880;2023-12-20T01:23:55;96897.28;;;0.33;74.26
78206;BME280;67480;48.920;12.880;2023-12-20T01:26:20;96895.13;;;0.37;74.10
78206;BME280;67480;48.920;12.880;2023-12-20T01:28:46;96891.38;;;0.39;74.13
78206;BME280;67480;48.920;12.880;2023-12-20T01:31:11;96868.06;;;0.39;74.30
78206;BME280;67480;48.920;12.880;2023-12-20T01:33:37;96872.28;;;0.40;74.21
78206;BME280;67480;48.920;12.880;2023-12-20T01:36:03;96871.03;;;0.36;74.14
78206;BME280;67480;48.920;12.880;2023-12-20T01:38:29;96872.00;;;0.35;74.64
78206;BME280;67480;48.920;12.880;2023-12-20T01:40:54;96879.44;;;0.38;74.41
78206;BME280;67480;48.920;12.880;2023-12-20T01:43:20;96880.41;;;0.37;74.41
78206;BME280;67480;48.920;12.880;2023-12-20T01:45:46;96886.28;;;0.31;74.73
78206;BME280;67480;48.920;12.880;2023-12-20T01:48:12;96887.09;;;0.32;74.83
78206;BME280;67480;48.920;12.880;2023-12-20T01:50:39;96889.06;;;0.30;74.76
78206;BME280;67480;48.920;12.880;2023-12-20T01:53:07;96877.91;;;0.29;75.11
78206;BME280;67480;48.920;12.880;2023-12-20T01:55:35;96879.50;;;0.30;74.95
78206;BME280;67480;48.920;12.880;2023-12-20T01:58:02;96877.91;;;0.29;75.00
78206;BME280;67480;48.920;12.880;2023-12-20T02:00:28;96877.19;;;0.35;74.66
78206;BME280;67480;48.920;12.880;2023-12-20T02:02:54;96872.66;;;0.37;74.78
78206;BME280;67480;48.920;12.880;2023-12-20T02:05:21;96862.28;;;0.37;74.72
78206;BME280;67480;48.920;12.880;2023-12-20T02:07:47;96858.06;;;0.36;74.92
78206;BME280;67480;48.920;12.880;2023-12-20T02:10:12;96848.84;;;0.34;75.06
78206;BME280;67480;48.920;12.880;2023-12-20T02:12:38;96849.84;;;0.33;75.13
78206;BME280;67480;48.920;12.880;2023-12-20T02:15:04;96840.91;;;0.35;75.10
78206;BME280;67480;48.920;12.880;2023-12-20T02:17:31;96832.88;;;0.30;75.48
78206;BME280;67480;48.920;12.880;2023-12-20T02:19:57;96837.25;;;0.30;75.58
78206;BME280;67480;48.920;12.880;2023-12-20T02:22:22;96838.06;;;0.30;75.63
78206;BME280;67480;48.920;12.880;2023-12-20T02:24:47;96825.91;;;0.31;75.68
78206;BME280;67480;48.920;12.880;2023-12-20T02:27:14;96823.31;;;0.31;75.83
78206;BME280;67480;48.920;12.880;2023-12-20T02:29:40;96832.06;;;0.30;75.79
78206;BME280;67480;48.920;12.880;2023-12-20T02:32:06;96832.88;;;0.30;76.45
78206;BME280;67480;48.920;12.880;2023-12-20T02:34:31;96823.75;;;0.34;76.05
78206;BME280;67480;48.920;12.880;2023-12-20T02:36:56;96826.03;;;0.37;75.97
78206;BME280;67480;48.920;12.880;2023-12-20T02:39:22;96828.25;;;0.40;75.77
78206;BME280;67480;48.920;12.880;2023-12-20T02:41:48;96809.47;;;0.38;75.83
78206;BME280;67480;48.920;12.880;2023-12-20T02:44:13;96823.25;;;0.39;76.12
78206;BME280;67480;48.920;12.880;2023-12-20T02:46:39;96823.44;;;0.37;75.98
78206;BME280;67480;48.920;12.880;2023-12-20T02:49:05;96809.84;;;0.35;76.51
78206;BME280;67480;48.920;12.880;2023-12-20T02:51:30;96811.44;;;0.36;75.90
78206;BME280;67480;48.920;12.880;2023-12-20T02:53:56;96812.44;;;0.35;76.23
78206;BME280;67480;48.920;12.880;2023-12-20T02:56:21;96798.22;;;0.31;76.57
78206;BME280;67480;48.920;12.880;2023-12-20T02:58:46;96803.38;;;0.31;76.42
78206;BME280;67480;48.920;12.880;2023-12-20T03:01:12;96801.44;;;0.33;76.83
78206;BME280;67480;48.920;12.880;2023-12-20T03:03:37;96795.91;;;0.36;76.45
78206;BME280;67480;48.920;12.880;2023-12-20T03:06:03;96791.72;;;0.35;76.58
78206;BME280;67480;48.920;12.880;2023-12-20T03:08:28;96796.09;;;0.35;76.89
78206;BME280;67480;48.920;12.880;2023-12-20T03:10:53;96799.13;;;0.38;76.32
78206;BME280;67480;48.920;12.880;2023-12-20T03:13:19;96795.53;;;0.39;76.40
78206;BME280;67480;48.920;12.880;2023-12-20T03:15:45;96797.53;;;0.37;76.40
78206;BME280;67480;48.920;12.880;2023-12-20T03:18:10;96781.16;;;0.37;77.02
78206;BME280;67480;48.920;12.880;2023-12-20T03:20:36;96795.09;;;0.36;76.57
78206;BME280;67480;48.920;12.880;2023-12-20T03:23:01;96788.75;;;0.38;76.81
78206;BME280;67480;48.920;12.880;2023-12-20T03:25:26;96776.81;;;0.37;76.66
78206;BME280;67480;48.920;12.880;2023-12-20T03:27:52;96778.22;;;0.40;76.74
78206;BME280;67480;48.920;12.880;2023-12-20T03:30:18;96774.81;;;0.39;76.79
78206;BME280;67480;48.920;12.880;2023-12-20T03:32:44;96763.84;;;0.37;76.75
78206;BME280;67480;48.920;12.880;2023-12-20T03:35:09;96765.25;;;0.40;76.88
78206;BME280;67480;48.920;12.880;2023-12-20T03:37:35;96773.03;;;0.40;76.78
78206;BME280;67480;48.920;12.880;2023-12-20T03:40:01;96768.13;;;0.45;76.45
78206;BME280;67480;48.920;12.880;2023-12-20T03:42:26;96770.34;;;0.48;76.22
78206;BME280;67480;48.920;12.880;2023-12-20T03:44:52;96773.41;;;0.52;76.03
78206;BME280;67480;48.920;12.880;2023-12-20T03:47:17;96759.47;;;0.53;76.03
78206;BME280;67480;48.920;12.880;2023-12-20T03:49:42;96757.16;;;0.58;75.55
78206;BME280;67480;48.920;12.880;2023-12-20T03:52:08;96738.00;;;0.59;75.58
78206;BME280;67480;48.920;12.880;2023-12-20T03:54:34;96738.00;;;0.59;76.05
78206;BME280;67480;48.920;12.880;2023-12-20T03:57:00;96727.66;;;0.59;76.08
78206;BME280;67480;48.920;12.880;2023-12-20T03:59:25;96741.25;;;0.61;76.19
78206;BME280;67480;48.920;12.880;2023-12-20T04:01:51;96747.66;;;0.65;75.44
78206;BME280;67480;48.920;12.880;2023-12-20T04:04:16;96747.66;;;0.65;76.29
78206;BME280;67480;48.920;12.880;2023-12-20T04:06:41;96732.56;;;0.69;75.93
78206;BME280;67480;48.920;12.880;2023-12-20T04:09:07;96732.56;;;0.69;75.92
78206;BME280;67480;48.920;12.880;2023-12-20T04:11:34;96733.81;;;0.73;75.67
78206;BME280;67480;48.920;12.880;2023-12-20T04:14:00;96743.00;;;0.75;75.22
78206;BME280;67480;48.920;12.880;2023-12-20T04:16:26;96748.81;;;0.77;75.01
78206;BME280;67480;48.920;12.880;2023-12-20T04:18:51;96755.81;;;0.77;74.85
78206;BME280;67480;48.920;12.880;2023-12-20T04:21:17;96752.59;;;0.75;75.67
78206;BME280;67480;48.920;12.880;2023-12-20T04:23:43;96760.78;;;0.78;75.29
78206;BME280;67480;48.920;12.880;2023-12-20T04:26:09;96756.25;;;0.80;74.64
78206;BME280;67480;48.920;12.880;2023-12-20T04:28:34;96758.63;;;0.82;74.86
78206;BME280;67480;48.920;12.880;2023-12-20T04:30:59;96754.28;;;0.82;74.45
78206;BME280;67480;48.920;12.880;2023-12-20T04:33:25;96763.03;;;0.81;74.55
78206;BME280;67480;48.920;12.880;2023-12-20T04:35:50;96761.06;;;0.83;74.10
78206;BME280;67480;48.920;12.880;2023-12-20T04:38:16;96757.84;;;0.81;74.54
78206;BME280;67480;48.920;12.880;2023-12-20T04:40:41;96767.84;;;0.84;74.51
78206;BME280;67480;48.920;12.880;2023-12-20T04:43:07;96767.03;;;0.84;74.02
78206;BME280;67480;48.920;12.880;2023-12-20T04:45:34;96770.28;;;0.86;74.52
78206;BME280;67480;48.920;12.880;2023-12-20T04:47:59;96765.88;;;0.86;74.26
78206;BME280;67480;48.920;12.880;2023-12-20T04:50:24;96776.69;;;0.90;74.26
78206;BME280;67480;48.920;12.880;2023-12-20T04:52:50;96784.81;;;0.87;74.69
78206;BME280;67480;48.920;12.880;2023-12-20T04:55:16;96778.47;;;0.90;74.43
78206;BME280;67480;48.920;12.880;2023-12-20T04:57:41;96784.31;;;0.92;74.45
78206;BME280;67480;48.920;12.880;2023-12-20T05:00:09;96787.53;;;0.94;74.09
78206;BME280;67480;48.920;12.880;2023-12-20T05:02:35;96778.31;;;0.91;74.41
78206;BME280;67480;48.920;12.880;2023-12-20T05:05:01;96791.09;;;0.93;74.13
78206;BME280;67480;48.920;12.880;2023-12-20T05:07:26;96785.91;;;0.93;74.21
78206;BME280;67480;48.920;12.880;2023-12-20T05:09:51;96788.31;;;0.94;74.25
78206;BME280;67480;48.920;12.880;2023-12-20T05:12:17;96780.72;;;0.93;74.73
78206;BME280;67480;48.920;12.880;2023-12-20T05:14:42;96786.97;;;0.98;74.66
78206;BME280;67480;48.920;12.880;2023-12-20T05:17:07;96789.75;;;0.97;74.38
78206;BME280;67480;48.920;12.880;2023-12-20T05:19:33;96800.28;;;0.95;74.78
78206;BME280;67480;48.920;12.880;2023-12-20T05:22:01;96798.69;;;0.94;74.81
78206;BME280;67480;48.920;12.880;2023-12-20T05:24:27;96801.44;;;0.93;75.22
78206;BME280;67480;48.920;12.880;2023-12-20T05:26:53;96804.78;;;0.86;75.60
78206;BME280;67480;48.920;12.880;2023-12-20T05:29:18;96796.44;;;0.76;75.79
78206;BME280;67480;48.920;12.880;2023-12-20T05:31:43;96810.75;;;0.72;76.31
78206;BME280;67480;48.920;12.880;2023-12-20T05:34:10;96814.94;;;0.73;75.79
78206;BME280;67480;48.920;12.880;2023-12-20T05:36:36;96813.16;;;0.74;76.30
78206;BME280;67480;48.920;12.880;2023-12-20T05:39:01;96816.31;;;0.69;76.06
78206;BME280;67480;48.920;12.880;2023-12-20T05:41:28;96823.44;;;0.67;76.29
78206;BME280;67480;48.920;12.880;2023-12-20T05:43:54;96827.38;;;0.63;76.42
78206;BME280;67480;48.920;12.880;2023-12-20T05:46:19;96832.09;;;0.59;76.82
78206;BME280;67480;48.920;12.880;2023-12-20T05:48:44;96833.63;;;0.54;77.18
78206;BME280;67480;48.920;12.880;2023-12-20T05:51:13;96846.31;;;0.49;76.87
78206;BME280;67480;48.920;12.880;2023-12-20T05:53:38;96846.31;;;0.49;77.03
78206;BME280;67480;48.920;12.880;2023-12-20T05:56:04;96845.50;;;0.48;77.41
78206;BME280;67480;48.920;12.880;2023-12-20T05:58:30;96856.03;;;0.47;77.37
78206;BME280;67480;48.920;12.880;2023-12-20T06:00:55;96844.06;;;0.46;77.39
78206;BME280;67480;48.920;12.880;2023-12-20T06:03:20;96838.88;;;0.46;77.56
78206;BME280;67480;48.920;12.880;2023-12-20T06:05:46;96840.50;;;0.47;77.28
78206;BME280;67480;48.920;12.880;2023-12-20T06:08:11;96845.69;;;0.47;77.45
78206;BME280;67480;48.920;12.880;2023-12-20T06:10:37;96852.66;;;0.46;77.57
78206;BME280;67480;48.920;12.880;2023-12-20T06:13:03;96851.03;;;0.45;77.54
78206;BME280;67480;48.920;12.880;2023-12-20T06:15:29;96847.81;;;0.43;77.71
78206;BME280;67480;48.920;12.880;2023-12-20T06:17:54;96850.88;;;0.47;77.59
78206;BME280;67480;48.920;12.880;2023-12-20T06:20:22;96844.06;;;0.46;77.09
78206;BME280;67480;48.920;12.880;2023-12-20T06:22:47;96851.50;;;0.49;77.31
78206;BME280;67480;48.920;12.880;2023-12-20T06:25:12;96856.84;;;0.47;77.65
78206;BME280;67480;48.920;12.880;2023-12-20T06:27:38;96856.03;;;0.47;77.64
78206;BME280;67480;48.920;12.880;2023-12-20T06:30:04;96861.03;;;0.48;77.52
78206;BME280;67480;48.920;12.880;2023-12-20T06:32:29;96863.81;;;0.47;77.46
78206;BME280;67480;48.920;12.880;2023-12-20T06:34:55;96861.88;;;0.49;77.88
78206;BME280;67480;48.920;12.880;2023-12-20T06:37:20;96868.66;;;0.50;77.51
78206;BME280;67480;48.920;12.880;2023-12-20T06:39:46;96872.66;;;0.52;77.82
78206;BME280;67480;48.920;12.880;2023-12-20T06:42:12;96874.09;;;0.55;77.63
78206;BME280;67480;48.920;12.880;2023-12-20T06:44:38;96884.63;;;0.53;77.78
78206;BME280;67480;48.920;12.880;2023-12-20T06:47:04;96887.41;;;0.52;77.59
78206;BME280;67480;48.920;12.880;2023-12-20T06:49:29;96889.81;;;0.53;77.82
78206;BME280;67480;48.920;12.880;2023-12-20T06:51:55;96895.78;;;0.54;77.63
78206;BME280;67480;48.920;12.880;2023-12-20T06:54:22;96885.09;;;0.57;77.65
78206;BME280;67480;48.920;12.880;2023-12-20T06:56:47;96903.84;;;0.59;77.69
78206;BME280;67480;48.920;12.880;2023-12-20T06:59:13;96897.53;;;0.61;77.23
78206;BME280;67480;48.920;12.880;2023-12-20T07:01:38;96911.91;;;0.64;77.27
78206;BME280;67480;48.920;12.880;2023-12-20T07:04:03;96914.16;;;0.67;77.47
78206;BME280;67480;48.920;12.880;2023-12-20T07:06:29;96910.84;;;0.73;77.31
78206;BME280;67480;48.920;12.880;2023-12-20T07:08:54;96910.50;;;0.76;77.22
78206;BME280;67480;48.920;12.880;2023-12-20T07:11:20;96900.13;;;0.76;77.36
78206;BME280;67480;48.920;12.880;2023-12-20T07:13:45;96907.38;;;0.81;76.94
78206;BME280;67480;48.920;12.880;2023-12-20T07:16:10;96907.56;;;0.79;76.83
78206;BME280;67480;48.920;12.880;2023-12-20T07:18:39;96907.38;;;0.81;77.00
78206;BME280;67480;48.920;12.880;2023-12-20T07:21:07;96914.66;;;0.85;76.44
78206;BME280;67480;48.920;12.880;2023-12-20T07:23:33;96923.03;;;0.87;76.47
78206;BME280;67480;48.920;12.880;2023-12-20T07:25:58;96918.47;;;0.90;76.59
78206;BME280;67480;48.920;12.880;2023-12-20T07:28:24;96926.91;;;0.92;75.90
78206;BME280;67480;48.920;12.880;2023-12-20T07:30:50;96916.34;;;0.93;76.00
78206;BME280;67480;48.920;12.880;2023-12-20T07:33:15;96930.94;;;0.94;75.70
78206;BME280;67480;48.920;12.880;2023-12-20T07:35:41;96930.72;;;0.96;75.36
78206;BME280;67480;48.920;12.880;2023-12-20T07:38:06;96937.56;;;0.97;75.97
78206;BME280;67480;48.920;12.880;2023-12-20T07:40:32;96927.19;;;0.97;75.66
78206;BME280;67480;48.920;12.880;2023-12-20T07:42:57;96931.38;;;0.98;75.46
78206;BME280;67480;48.920;12.880;2023-12-20T07:45:23;96943.97;;;1.01;75.37
78206;BME280;67480;48.920;12.880;2023-12-20T07:47:49;96938.16;;;0.99;75.73
78206;BME280;67480;48.920;12.880;2023-12-20T07:50:15;96947.56;;;1.00;75.34
78206;BME280;67480;48.920;12.880;2023-12-20T07:52:41;96951.13;;;0.99;75.66
78206;BME280;67480;48.920;12.880;2023-12-20T07:55:07;96953.72;;;0.99;75.55
78206;BME280;67480;48.920;12.880;2023-12-20T07:57:32;96957.28;;;0.98;75.89
78206;BME280;67480;48.920;12.880;2023-12-20T07:59:57;96960.25;;;0.95;76.23
78206;BME280;67480;48.920;12.880;2023-12-20T08:02:23;96963.84;;;0.94;76.39
78206;BME280;67480;48.920;12.880;2023-12-20T08:04:49;96972.22;;;0.96;75.90
78206;BME280;67480;48.920;12.880;2023-12-20T08:07:14;96980.78;;;0.96;76.00
78206;BME280;67480;48.920;12.880;2023-12-20T08:09:40;96977.41;;;0.96;76.23
78206;BME280;67480;48.920;12.880;2023-12-20T08:12:05;96971.41;;;0.95;76.38
78206;BME280;67480;48.920;12.880;2023-12-20T08:14:31;96984.22;;;0.97;75.83
78206;BME280;67480;48.920;12.880;2023-12-20T08:16:56;96975.44;;;0.98;76.24
78206;BME280;67480;48.920;12.880;2023-12-20T08:19:22;96971.88;;;0.99;75.84
78206;BME280;67480;48.920;12.880;2023-12-20T08:21:47;96977.88;;;0.99;76.24
78206;BME280;67480;48.920;12.880;2023-12-20T08:24:12;96978.31;;;1.03;75.78
78206;BME280;67480;48.920;12.880;2023-12-20T08:26:38;96973.13;;;1.03;75.90
78206;BME280;67480;48.920;12.880;2023-12-20T08:29:04;96968.91;;;1.02;75.67
78206;BME280;67480;48.920;12.880;2023-12-20T08:31:29;96971.88;;;0.99;75.86
78206;BME280;67480;48.920;12.880;2023-12-20T08:33:54;96983.16;;;1.06;75.81
78206;BME280;67480;48.920;12.880;2023-12-20T08:36:21;96983.16;;;1.06;75.47
78206;BME280;67480;48.920;12.880;2023-12-20T08:38:48;96988.00;;;1.09;75.43
78206;BME280;67480;48.920;12.880;2023-12-20T08:41:13;97000.78;;;1.11;75.06
78206;BME280;67480;48.920;12.880;2023-12-20T08:43:39;97000.78;;;1.11;75.00
78206;BME280;67480;48.920;12.880;2023-12-20T08:46:05;96987.81;;;1.11;75.26
78206;BME280;67480;48.920;12.880;2023-12-20T08:48:31;96982.81;;;1.09;75.60
78206;BME280;67480;48.920;12.880;2023-12-20T08:50:56;96983.44;;;1.11;75.52
78206;BME280;67480;48.920;12.880;2023-12-20T08:53:22;96984.69;;;1.15;75.07
78206;BME280;67480;48.920;12.880;2023-12-20T08:55:47;96975.94;;;1.16;74.98
78206;BME280;67480;48.920;12.880;2023-12-20T08:58:13;96975.09;;;1.16;75.11
78206;BME280;67480;48.920;12.880;2023-12-20T09:00:39;96974.66;;;1.12;75.35
78206;BME280;67480;48.920;12.880;2023-12-20T09:03:05;96977.53;;;1.17;75.72
78206;BME280;67480;48.920;12.880;2023-12-20T09:05:30;96971.72;;;1.15;75.35
78206;BME280;67480;48.920;12.880;2023-12-20T09:07:56;96980.13;;;1.17;75.63
78206;BME280;67480;48.920;12.880;2023-12-20T09:10:21;96978.16;;;1.19;75.41
78206;BME280;67480;48.920;12.880;2023-12-20T09:12:51;96978.97;;;1.20;75.63
78206;BME280;67480;48.920;12.880;2023-12-20T09:15:19;96972.88;;;1.13;76.01
78206;BME280;67480;48.920;12.880;2023-12-20T09:17:44;96972.72;;;1.14;75.42
78206;BME280;67480;48.920;12.880;2023-12-20T09:20:10;96985.69;;;1.14;75.62
78206;BME280;67480;48.920;12.880;2023-12-20T09:22:38;96976.25;;;1.13;75.68
78206;BME280;67480;48.920;12.880;2023-12-20T09:25:05;96976.91;;;1.15;75.32
78206;BME280;67480;48.920;12.880;2023-12-20T09:27:30;96977.69;;;1.16;75.37
78206;BME280;67480;48.920;12.880;2023-12-20T09:29:55;96970.38;;;1.19;75.39
78206;BME280;67480;48.920;12.880;2023-12-20T09:32:21;96978.34;;;1.18;76.01
78206;BME280;67480;48.920;12.880;2023-12-20T09:34:47;96974.16;;;1.17;75.93
78206;BME280;67480;48.920;12.880;2023-12-20T09:37:13;96966.53;;;1.15;75.56
78206;BME280;67480;48.920;12.880;2023-12-20T09:39:38;96962.13;;;1.16;75.97
78206;BME280;67480;48.920;12.880;2023-12-20T09:42:04;96961.19;;;1.17;75.92
78206;BME280;67480;48.920;12.880;2023-12-20T09:44:31;96969.56;;;1.19;75.52
78206;BME280;67480;48.920;12.880;2023-12-20T09:46:57;96979.78;;;1.20;75.63
78206;BME280;67480;48.920;12.880;2023-12-20T09:49:23;96978.16;;;1.19;75.24
78206;BME280;67480;48.920;12.880;2023-12-20T09:51:53;96968.59;;;1.20;75.12
78206;BME280;67480;48.920;12.880;2023-12-20T09:54:20;96976.19;;;1.21;75.71
78206;BME280;67480;48.920;12.880;2023-12-20T09:56:46;96968.59;;;1.20;75.75
78206;BME280;67480;48.920;12.880;2023-12-20T09:59:11;96960.03;;;1.19;75.32
78206;BME280;67480;48.920;12.880;2023-12-20T10:01:39;96961.44;;;1.22;75.37
78206;BME280;67480;48.920;12.880;2023-12-20T10:04:09;96963.06;;;1.23;75.43
78206;BME280;67480;48.920;12.880;2023-12-20T10:06:44;96969.84;;;1.24;75.78
78206;BME280;67480;48.920;12.880;2023-12-20T10:09:10;96970.84;;;1.23;75.24
78206;BME280;67480;48.920;12.880;2023-12-20T10:11:37;96956.44;;;1.20;75.78
78206;BME280;67480;48.920;12.880;2023-12-20T10:14:03;96956.25;;;1.22;75.40
78206;BME280;67480;48.920;12.880;2023-12-20T10:16:29;96954.63;;;1.21;76.04
78206;BME280;67480;48.920;12.880;2023-12-20T10:18:55;96955.44;;;1.21;75.60
78206;BME280;67480;48.920;12.880;2023-12-20T10:21:22;96960.25;;;1.24;75.67
78206;BME280;67480;48.920;12.880;2023-12-20T10:23:48;96953.91;;;1.27;75.12
78206;BME280;67480;48.920;12.880;2023-12-20T10:26:22;96958.31;;;1.26;75.85
78206;BME280;67480;48.920;12.880;2023-12-20T10:28:53;96958.75;;;1.30;75.32
78206;BME280;67480;48.920;12.880;2023-12-20T10:31:30;96959.56;;;1.30;75.49
78206;BME280;67480;48.920;12.880;2023-12-20T10:33:59;96969.13;;;1.30;75.66
78206;BME280;67480;48.920;12.880;2023-12-20T10:36:26;96952.16;;;1.27;75.62
78206;BME280;67480;48.920;12.880;2023-12-20T10:38:53;96939.19;;;1.27;75.60
78206;BME280;67480;48.920;12.880;2023-12-20T10:41:29;96947.22;;;1.32;75.50
78206;BME280;67480;48.920;12.880;2023-12-20T10:43:58;96943.00;;;1.31;75.59
78206;BME280;67480;48.920;12.880;2023-12-20T10:46:24;96930.03;;;1.31;75.75
78206;BME280;67480;48.920;12.880;2023-12-20T10:48:53;96930.47;;;1.35;75.52
78206;BME280;67480;48.920;12.880;2023-12-20T10:51:22;96931.91;;;1.38;75.29
78206;BME280;67480;48.920;12.880;2023-12-20T10:53:50;96930.94;;;1.39;75.30
78206;BME280;67480;48.920;12.880;2023-12-20T10:56:17;96934.34;;;1.39;75.35
78206;BME280;67480;48.920;12.880;2023-12-20T10:58:50;96935.16;;;1.40;75.44
78206;BME280;67480;48.920;12.880;2023-12-20T11:01:17;96926.56;;;1.39;75.16
78206;BME280;67480;48.920;12.880;2023-12-20T11:03:51;96926.38;;;1.41;75.47
78206;BME280;67480;48.920;12.880;2023-12-20T11:06:27;96918.56;;;1.41;75.58
78206;BME280;67480;48.920;12.880;2023-12-20T11:12:22;96907.84;;;1.44;75.40
78206;BME280;67480;48.920;12.880;2023-12-20T11:14:55;96899.81;;;1.39;75.38
78206;BME280;67480;48.920;12.880;2023-12-20T11:17:22;96909.00;;;1.41;75.52
78206;BME280;67480;48.920;12.880;2023-12-20T11:22:17;96926.19;;;1.42;75.49
78206;BME280;67480;48.920;12.880;2023-12-20T11:24:44;96920.22;;;1.42;75.54
78206;BME280;67480;48.920;12.880;2023-12-20T11:27:12;96915.00;;;1.42;75.57
78206;BME280;67480;48.920;12.880;2023-12-20T11:29:38;96906.59;;;1.40;75.67
78206;BME280;67480;48.920;12.880;2023-12-20T11:34:51;96914.28;;;1.48;75.50
78206;BME280;67480;48.920;12.880;2023-12-20T11:37:19;96899.09;;;1.45;75.36
78206;BME280;67480;48.920;12.880;2023-12-20T11:39:45;96900.50;;;1.47;76.11
78206;BME280;67480;48.920;12.880;2023-12-20T11:42:10;96908.72;;;1.51;75.67
78206;BME280;67480;48.920;12.880;2023-12-20T11:44:36;96901.94;;;1.50;75.65
78206;BME280;67480;48.920;12.880;2023-12-20T11:47:02;96895.94;;;1.49;75.21
78206;BME280;67480;48.920;12.880;2023-12-20T11:49:28;96889.94;;;1.49;75.28
78206;BME280;67480;48.920;12.880;2023-12-20T11:51:56;96892.38;;;1.50;75.02
78206;BME280;67480;48.920;12.880;2023-12-20T11:54:22;96888.97;;;1.50;76.04
78206;BME280;67480;48.920;12.880;2023-12-20T11:56:47;96882.41;;;1.54;75.40
78206;BME280;67480;48.920;12.880;2023-12-20T11:59:15;96867.84;;;1.53;75.44
78206;BME280;67480;48.920;12.880;2023-12-20T12:01:48;96867.00;;;1.52;75.68
78206;BME280;67480;48.920;12.880;2023-12-20T12:04:14;96867.47;;;1.56;75.47
78206;BME280;67480;48.920;12.880;2023-12-20T12:06:40;96859.69;;;1.56;75.30
78206;BME280;67480;48.920;12.880;2023-12-20T12:09:06;96872.22;;;1.52;75.56
78206;BME280;67480;48.920;12.880;2023-12-20T12:11:31;96861.66;;;1.54;75.22
78206;BME280;67480;48.920;12.880;2023-12-20T12:13:57;96859.69;;;1.56;75.41
78206;BME280;67480;48.920;12.880;2023-12-20T12:16:22;96865.13;;;1.61;75.08
78206;BME280;67480;48.920;12.880;2023-12-20T12:18:57;96873.53;;;1.63;75.19
78206;BME280;67480;48.920;12.880;2023-12-20T12:21:22;96874.97;;;1.66;75.02
78206;BME280;67480;48.920;12.880;2023-12-20T12:23:48;96867.16;;;1.66;74.64
78206;BME280;67480;48.920;12.880;2023-12-20T12:26:13;96864.56;;;1.66;74.89
78206;BME280;67480;48.920;12.880;2023-12-20T12:28:43;96862.19;;;1.64;74.66
78206;BME280;67480;48.920;12.880;2023-12-20T12:31:17;96856.00;;;1.65;74.63
78206;BME280;67480;48.920;12.880;2023-12-20T12:33:43;96863.78;;;1.65;74.84
78206;BME280;67480;48.920;12.880;2023-12-20T12:36:10;96852.22;;;1.68;74.77
78206;BME280;67480;48.920;12.880;2023-12-20T12:38:36;96848.81;;;1.67;74.63
78206;BME280;67480;48.920;12.880;2023-12-20T12:41:01;96858.41;;;1.67;74.59
78206;BME280;67480;48.920;12.880;2023-12-20T12:43:27;96856.78;;;1.66;74.72
78206;BME280;67480;48.920;12.880;2023-12-20T12:45:53;96848.38;;;1.64;74.54
78206;BME280;67480;48.920;12.880;2023-12-20T12:48:19;96848.19;;;1.65;74.44
78206;BME280;67480;48.920;12.880;2023-12-20T12:50:46;96857.22;;;1.69;74.75
78206;BME280;67480;48.920;12.880;2023-12-20T12:53:11;96857.41;;;1.68;74.67
78206;BME280;67480;48.920;12.880;2023-12-20T12:55:36;96853.03;;;1.68;74.56
78206;BME280;67480;48.920;12.880;2023-12-20T12:58:02;96846.84;;;1.69;74.37
78206;BME280;67480;48.920;12.880;2023-12-20T13:00:27;96855.00;;;1.66;74.63
78206;BME280;67480;48.920;12.880;2023-12-20T13:02:53;96859.66;;;1.71;74.74